Hlavní strana
METAR-TAF:

METAR-TAF

Letiště :

Aalborg, Dánsko

zeměpisná šířka: 57-06N, zeměpisná délka: 009-51E, výška: 3 m

Aktuální stav počasí

Zpráva byla vytvořena před 29 minutami, v 08:50 UTC
Severoseverovýchodní vítr 9 kt
Teplota 3°C
Vlhkost vzduchu 65%
Tlak 1021 hPa
Viditelnost 10 km a více

METAR: EKYT 040850Z AUTO 02009KT 9999 NCD 03/M03 Q1021

Čas: 10:19 (09:19 UTC)

Předpověď počasí

Zpráva byla vytvořena před 1 hodinou a 6 minutami, v 08:13 UTC
Předpověď platná od 04 v 09 UTC do 05 v 09 UTC
Severoseverovýchodní vítr 12 kt
Viditelnost 10 km a více
Skoro jasno ve výšce 2000 ft
Změna
od 04 v 14 UTC do 04 v 17 UTC
Severoseverozápadní vítr 6 kt

TAF: EKYT 040813Z 0409/0509 02012KT 9999 FEW020 BECMG 0414/0417 33006KT

Stav a předpovědi počasí z více než 4 000 letišť (zprávy METAR a TAF).

Červené a žluté tečky na mapě představují dostupné meteorologické stanice.

Když kurzor umístíte na tečku, zobrazí se název stanice.

Pak kliknutím zobrazíte stav a předpověď počasí.

Chcete-li změnit mapu, kliknutím na zelené tlačítko se znaménkem +mapu přiblížíte, kliknutím na zelené tlačítko se znaménkem – mapu oddálíte a kliknutím na zelené šipky přejdete na sousední mapy.


METAR-TAF: